sensor_id;sensor_type;location;lat;lon;timestamp;P1;durP1;ratioP1;P2;durP2;ratioP2
31537;SDS011;18147;51.952;6.146;2023-11-21T00:00:36;52.00;;;26.05;;
31537;SDS011;18147;51.952;6.146;2023-11-21T00:03:01;53.28;;;23.63;;
31537;SDS011;18147;51.952;6.146;2023-11-21T00:05:27;56.55;;;25.15;;
31537;SDS011;18147;51.952;6.146;2023-11-21T00:07:52;52.90;;;25.08;;
31537;SDS011;18147;51.952;6.146;2023-11-21T00:10:18;60.38;;;24.15;;
31537;SDS011;18147;51.952;6.146;2023-11-21T00:12:43;43.20;;;21.33;;
31537;SDS011;18147;51.952;6.146;2023-11-21T00:15:09;41.30;;;22.95;;
31537;SDS011;18147;51.952;6.146;2023-11-21T00:17:38;43.58;;;23.02;;
31537;SDS011;18147;51.952;6.146;2023-11-21T00:20:05;56.88;;;25.92;;
31537;SDS011;18147;51.952;6.146;2023-11-21T00:22:35;70.68;;;29.55;;
31537;SDS011;18147;51.952;6.146;2023-11-21T00:25:01;39.20;;;20.85;;
31537;SDS011;18147;51.952;6.146;2023-11-21T00:27:28;46.03;;;23.17;;
31537;SDS011;18147;51.952;6.146;2023-11-21T00:29:54;50.90;;;23.48;;
31537;SDS011;18147;51.952;6.146;2023-11-21T00:32:19;46.85;;;23.10;;
31537;SDS011;18147;51.952;6.146;2023-11-21T00:34:45;40.85;;;20.58;;
31537;SDS011;18147;51.952;6.146;2023-11-21T00:37:12;39.50;;;20.25;;
31537;SDS011;18147;51.952;6.146;2023-11-21T00:39:37;55.95;;;24.42;;
31537;SDS011;18147;51.952;6.146;2023-11-21T00:42:03;30.85;;;15.80;;
31537;SDS011;18147;51.952;6.146;2023-11-21T00:44:30;31.15;;;14.88;;
31537;SDS011;18147;51.952;6.146;2023-11-21T00:46:55;41.47;;;20.15;;
31537;SDS011;18147;51.952;6.146;2023-11-21T00:49:21;37.03;;;19.92;;
31537;SDS011;18147;51.952;6.146;2023-11-21T00:51:48;48.97;;;22.17;;
31537;SDS011;18147;51.952;6.146;2023-11-21T00:54:13;49.83;;;24.70;;
31537;SDS011;18147;51.952;6.146;2023-11-21T00:56:42;25.30;;;14.50;;
31537;SDS011;18147;51.952;6.146;2023-11-21T00:59:07;38.70;;;21.27;;
31537;SDS011;18147;51.952;6.146;2023-11-21T01:01:33;35.35;;;17.60;;
31537;SDS011;18147;51.952;6.146;2023-11-21T01:03:58;49.53;;;22.65;;
31537;SDS011;18147;51.952;6.146;2023-11-21T01:06:24;52.67;;;23.67;;
31537;SDS011;18147;51.952;6.146;2023-11-21T01:08:49;47.83;;;22.77;;
31537;SDS011;18147;51.952;6.146;2023-11-21T01:11:15;52.70;;;22.67;;
31537;SDS011;18147;51.952;6.146;2023-11-21T01:13:42;33.95;;;17.70;;
31537;SDS011;18147;51.952;6.146;2023-11-21T01:16:07;44.20;;;20.85;;
31537;SDS011;18147;51.952;6.146;2023-11-21T01:18:34;58.67;;;26.00;;
31537;SDS011;18147;51.952;6.146;2023-11-21T01:21:00;53.35;;;23.85;;
31537;SDS011;18147;51.952;6.146;2023-11-21T01:23:26;60.13;;;27.70;;
31537;SDS011;18147;51.952;6.146;2023-11-21T01:25:52;58.72;;;26.20;;
31537;SDS011;18147;51.952;6.146;2023-11-21T01:28:18;57.70;;;26.90;;
31537;SDS011;18147;51.952;6.146;2023-11-21T01:30:44;66.60;;;30.30;;
31537;SDS011;18147;51.952;6.146;2023-11-21T01:33:11;58.50;;;27.48;;
31537;SDS011;18147;51.952;6.146;2023-11-21T01:35:36;66.22;;;29.15;;
31537;SDS011;18147;51.952;6.146;2023-11-21T01:38:02;72.15;;;28.70;;
31537;SDS011;18147;51.952;6.146;2023-11-21T01:40:27;78.82;;;32.58;;
31537;SDS011;18147;51.952;6.146;2023-11-21T01:42:53;64.22;;;29.55;;
31537;SDS011;18147;51.952;6.146;2023-11-21T01:45:19;72.65;;;32.63;;
31537;SDS011;18147;51.952;6.146;2023-11-21T01:47:45;61.70;;;26.50;;
31537;SDS011;18147;51.952;6.146;2023-11-21T01:50:13;77.13;;;32.28;;
31537;SDS011;18147;51.952;6.146;2023-11-21T01:52:41;82.72;;;36.20;;
31537;SDS011;18147;51.952;6.146;2023-11-21T01:55:09;76.97;;;31.25;;
31537;SDS011;18147;51.952;6.146;2023-11-21T01:57:36;74.15;;;31.98;;
31537;SDS011;18147;51.952;6.146;2023-11-21T02:00:04;96.45;;;38.03;;
31537;SDS011;18147;51.952;6.146;2023-11-21T02:02:49;100.75;;;39.33;;
31537;SDS011;18147;51.952;6.146;2023-11-21T02:05:15;85.55;;;36.15;;
31537;SDS011;18147;51.952;6.146;2023-11-21T02:07:43;87.72;;;38.13;;
31537;SDS011;18147;51.952;6.146;2023-11-21T02:10:10;82.75;;;35.03;;
31537;SDS011;18147;51.952;6.146;2023-11-21T02:12:40;94.32;;;38.50;;
31537;SDS011;18147;51.952;6.146;2023-11-21T02:15:07;89.78;;;36.65;;
31537;SDS011;18147;51.952;6.146;2023-11-21T02:17:43;92.20;;;38.15;;
31537;SDS011;18147;51.952;6.146;2023-11-21T02:20:18;76.55;;;34.53;;
31537;SDS011;18147;51.952;6.146;2023-11-21T02:22:49;85.85;;;37.42;;
31537;SDS011;18147;51.952;6.146;2023-11-21T02:25:21;66.57;;;33.42;;
31537;SDS011;18147;51.952;6.146;2023-11-21T02:27:46;87.18;;;35.80;;
31537;SDS011;18147;51.952;6.146;2023-11-21T02:30:13;81.22;;;35.65;;
31537;SDS011;18147;51.952;6.146;2023-11-21T02:32:39;105.57;;;39.38;;
31537;SDS011;18147;51.952;6.146;2023-11-21T02:35:07;88.85;;;35.03;;
31537;SDS011;18147;51.952;6.146;2023-11-21T02:37:33;121.43;;;44.83;;
31537;SDS011;18147;51.952;6.146;2023-11-21T02:40:00;96.38;;;39.80;;
31537;SDS011;18147;51.952;6.146;2023-11-21T02:42:29;108.18;;;38.65;;
31537;SDS011;18147;51.952;6.146;2023-11-21T02:44:54;118.93;;;41.70;;
31537;SDS011;18147;51.952;6.146;2023-11-21T02:47:20;126.28;;;45.97;;
31537;SDS011;18147;51.952;6.146;2023-11-21T02:49:45;133.65;;;48.42;;
31537;SDS011;18147;51.952;6.146;2023-11-21T02:52:10;105.40;;;41.38;;
31537;SDS011;18147;51.952;6.146;2023-11-21T02:54:36;144.68;;;49.38;;
31537;SDS011;18147;51.952;6.146;2023-11-21T02:57:02;152.93;;;48.65;;
31537;SDS011;18147;51.952;6.146;2023-11-21T02:59:28;188.00;;;57.70;;
31537;SDS011;18147;51.952;6.146;2023-11-21T03:01:54;184.13;;;57.63;;
31537;SDS011;18147;51.952;6.146;2023-11-21T03:04:22;185.80;;;58.10;;
31537;SDS011;18147;51.952;6.146;2023-11-21T03:06:48;231.52;;;64.95;;
31537;SDS011;18147;51.952;6.146;2023-11-21T03:09:14;223.30;;;61.38;;
31537;SDS011;18147;51.952;6.146;2023-11-21T03:11:41;224.77;;;65.22;;
31537;SDS011;18147;51.952;6.146;2023-11-21T03:14:07;227.00;;;66.68;;
31537;SDS011;18147;51.952;6.146;2023-11-21T03:16:32;248.80;;;67.20;;
31537;SDS011;18147;51.952;6.146;2023-11-21T03:18:58;262.55;;;67.82;;
31537;SDS011;18147;51.952;6.146;2023-11-21T03:21:24;225.07;;;68.43;;
31537;SDS011;18147;51.952;6.146;2023-11-21T03:23:50;189.00;;;60.05;;
31537;SDS011;18147;51.952;6.146;2023-11-21T03:26:16;217.02;;;62.72;;
31537;SDS011;18147;51.952;6.146;2023-11-21T03:28:42;205.27;;;60.95;;
31537;SDS011;18147;51.952;6.146;2023-11-21T03:31:07;254.48;;;69.25;;
31537;SDS011;18147;51.952;6.146;2023-11-21T03:33:34;243.60;;;66.18;;
31537;SDS011;18147;51.952;6.146;2023-11-21T03:36:00;262.23;;;67.07;;
31537;SDS011;18147;51.952;6.146;2023-11-21T03:38:26;309.65;;;75.40;;
31537;SDS011;18147;51.952;6.146;2023-11-21T03:40:51;271.58;;;64.82;;
31537;SDS011;18147;51.952;6.146;2023-11-21T03:43:16;345.05;;;77.53;;
31537;SDS011;18147;51.952;6.146;2023-11-21T03:45:42;291.45;;;71.47;;
31537;SDS011;18147;51.952;6.146;2023-11-21T03:48:09;298.33;;;72.40;;
31537;SDS011;18147;51.952;6.146;2023-11-21T03:50:37;327.50;;;75.18;;
31537;SDS011;18147;51.952;6.146;2023-11-21T03:53:02;326.48;;;75.88;;
31537;SDS011;18147;51.952;6.146;2023-11-21T03:55:29;273.55;;;72.68;;
31537;SDS011;18147;51.952;6.146;2023-11-21T03:57:56;414.38;;;82.78;;
31537;SDS011;18147;51.952;6.146;2023-11-21T04:00:22;262.75;;;68.90;;
31537;SDS011;18147;51.952;6.146;2023-11-21T04:02:48;394.27;;;83.88;;
31537;SDS011;18147;51.952;6.146;2023-11-21T04:05:13;344.52;;;76.63;;
31537;SDS011;18147;51.952;6.146;2023-11-21T04:07:39;358.67;;;73.22;;
31537;SDS011;18147;51.952;6.146;2023-11-21T04:10:05;357.38;;;77.00;;
31537;SDS011;18147;51.952;6.146;2023-11-21T04:12:33;324.63;;;76.00;;
31537;SDS011;18147;51.952;6.146;2023-11-21T04:14:59;289.35;;;71.88;;
31537;SDS011;18147;51.952;6.146;2023-11-21T04:17:25;224.73;;;63.85;;
31537;SDS011;18147;51.952;6.146;2023-11-21T04:19:50;262.73;;;66.05;;
31537;SDS011;18147;51.952;6.146;2023-11-21T04:22:15;196.27;;;59.72;;
31537;SDS011;18147;51.952;6.146;2023-11-21T04:24:41;201.20;;;58.97;;
31537;SDS011;18147;51.952;6.146;2023-11-21T04:27:07;289.13;;;73.30;;
31537;SDS011;18147;51.952;6.146;2023-11-21T04:29:32;258.00;;;68.82;;
31537;SDS011;18147;51.952;6.146;2023-11-21T04:31:58;305.50;;;75.10;;
31537;SDS011;18147;51.952;6.146;2023-11-21T04:34:23;273.70;;;68.97;;
31537;SDS011;18147;51.952;6.146;2023-11-21T04:36:49;265.35;;;69.03;;
31537;SDS011;18147;51.952;6.146;2023-11-21T04:39:15;368.60;;;81.40;;
31537;SDS011;18147;51.952;6.146;2023-11-21T04:41:40;352.33;;;77.60;;
31537;SDS011;18147;51.952;6.146;2023-11-21T04:44:06;312.63;;;69.38;;
31537;SDS011;18147;51.952;6.146;2023-11-21T04:46:31;325.92;;;73.03;;
31537;SDS011;18147;51.952;6.146;2023-11-21T04:48:57;251.93;;;67.30;;
31537;SDS011;18147;51.952;6.146;2023-11-21T04:51:23;230.15;;;63.65;;
31537;SDS011;18147;51.952;6.146;2023-11-21T04:53:49;211.95;;;59.63;;
31537;SDS011;18147;51.952;6.146;2023-11-21T04:56:14;372.77;;;80.03;;
31537;SDS011;18147;51.952;6.146;2023-11-21T04:58:41;347.15;;;74.95;;
31537;SDS011;18147;51.952;6.146;2023-11-21T05:01:07;267.67;;;69.40;;
31537;SDS011;18147;51.952;6.146;2023-11-21T05:03:33;406.42;;;85.97;;
31537;SDS011;18147;51.952;6.146;2023-11-21T05:05:59;259.33;;;65.43;;
31537;SDS011;18147;51.952;6.146;2023-11-21T05:08:25;291.23;;;71.25;;
31537;SDS011;18147;51.952;6.146;2023-11-21T05:10:51;285.00;;;73.85;;
31537;SDS011;18147;51.952;6.146;2023-11-21T05:13:17;335.65;;;76.90;;
31537;SDS011;18147;51.952;6.146;2023-11-21T05:15:43;275.65;;;69.88;;
31537;SDS011;18147;51.952;6.146;2023-11-21T05:18:09;289.20;;;72.50;;
31537;SDS011;18147;51.952;6.146;2023-11-21T05:20:35;238.43;;;62.60;;
31537;SDS011;18147;51.952;6.146;2023-11-21T05:23:02;229.98;;;62.33;;
31537;SDS011;18147;51.952;6.146;2023-11-21T05:25:27;186.23;;;57.65;;
31537;SDS011;18147;51.952;6.146;2023-11-21T05:27:53;190.45;;;61.08;;
31537;SDS011;18147;51.952;6.146;2023-11-21T05:30:19;237.88;;;67.20;;
31537;SDS011;18147;51.952;6.146;2023-11-21T05:32:47;197.88;;;62.90;;
31537;SDS011;18147;51.952;6.146;2023-11-21T05:35:12;210.73;;;62.20;;
31537;SDS011;18147;51.952;6.146;2023-11-21T05:37:41;161.45;;;53.30;;
31537;SDS011;18147;51.952;6.146;2023-11-21T05:40:07;187.10;;;60.50;;
31537;SDS011;18147;51.952;6.146;2023-11-21T05:42:34;155.57;;;57.63;;
31537;SDS011;18147;51.952;6.146;2023-11-21T05:45:00;221.30;;;65.57;;
31537;SDS011;18147;51.952;6.146;2023-11-21T05:47:39;192.65;;;59.90;;
31537;SDS011;18147;51.952;6.146;2023-11-21T05:50:06;199.60;;;62.97;;
31537;SDS011;18147;51.952;6.146;2023-11-21T05:52:37;200.20;;;62.25;;
31537;SDS011;18147;51.952;6.146;2023-11-21T05:55:04;139.90;;;49.33;;
31537;SDS011;18147;51.952;6.146;2023-11-21T05:57:33;150.00;;;52.58;;
31537;SDS011;18147;51.952;6.146;2023-11-21T06:00:12;158.63;;;53.95;;
31537;SDS011;18147;51.952;6.146;2023-11-21T06:02:50;166.63;;;53.78;;
31537;SDS011;18147;51.952;6.146;2023-11-21T06:05:20;157.55;;;53.42;;
31537;SDS011;18147;51.952;6.146;2023-11-21T06:07:49;142.18;;;51.97;;
31537;SDS011;18147;51.952;6.146;2023-11-21T06:10:15;143.75;;;50.67;;
31537;SDS011;18147;51.952;6.146;2023-11-21T06:12:42;146.80;;;50.75;;
31537;SDS011;18147;51.952;6.146;2023-11-21T06:15:08;117.57;;;46.05;;
31537;SDS011;18147;51.952;6.146;2023-11-21T06:17:38;123.97;;;46.00;;
31537;SDS011;18147;51.952;6.146;2023-11-21T06:20:05;121.25;;;46.42;;
31537;SDS011;18147;51.952;6.146;2023-11-21T06:22:37;158.27;;;52.63;;
31537;SDS011;18147;51.952;6.146;2023-11-21T06:25:04;118.82;;;44.00;;
31537;SDS011;18147;51.952;6.146;2023-11-21T06:27:31;122.47;;;46.03;;
31537;SDS011;18147;51.952;6.146;2023-11-21T06:29:58;105.75;;;42.78;;
31537;SDS011;18147;51.952;6.146;2023-11-21T06:32:23;131.85;;;49.78;;
31537;SDS011;18147;51.952;6.146;2023-11-21T06:34:49;142.98;;;50.80;;
31537;SDS011;18147;51.952;6.146;2023-11-21T06:37:14;113.60;;;44.47;;
31537;SDS011;18147;51.952;6.146;2023-11-21T06:39:40;132.57;;;49.05;;
31537;SDS011;18147;51.952;6.146;2023-11-21T06:42:06;125.47;;;46.75;;
31537;SDS011;18147;51.952;6.146;2023-11-21T06:44:32;137.88;;;49.50;;
31537;SDS011;18147;51.952;6.146;2023-11-21T06:46:58;120.90;;;48.40;;
31537;SDS011;18147;51.952;6.146;2023-11-21T06:49:24;117.43;;;44.72;;
31537;SDS011;18147;51.952;6.146;2023-11-21T06:51:49;115.90;;;46.47;;
31537;SDS011;18147;51.952;6.146;2023-11-21T06:54:15;139.15;;;49.83;;
31537;SDS011;18147;51.952;6.146;2023-11-21T06:56:40;130.90;;;49.80;;
31537;SDS011;18147;51.952;6.146;2023-11-21T06:59:06;131.48;;;50.25;;
31537;SDS011;18147;51.952;6.146;2023-11-21T07:01:31;180.82;;;57.45;;
31537;SDS011;18147;51.952;6.146;2023-11-21T07:04:04;141.75;;;54.95;;
31537;SDS011;18147;51.952;6.146;2023-11-21T07:06:30;141.57;;;50.30;;
31537;SDS011;18147;51.952;6.146;2023-11-21T07:08:56;139.48;;;52.50;;
31537;SDS011;18147;51.952;6.146;2023-11-21T07:11:22;144.93;;;48.67;;
31537;SDS011;18147;51.952;6.146;2023-11-21T07:13:47;109.05;;;45.70;;
31537;SDS011;18147;51.952;6.146;2023-11-21T07:16:13;122.88;;;47.70;;
31537;SDS011;18147;51.952;6.146;2023-11-21T07:18:40;175.75;;;59.80;;
31537;SDS011;18147;51.952;6.146;2023-11-21T07:21:05;134.30;;;51.88;;
31537;SDS011;18147;51.952;6.146;2023-11-21T07:23:31;147.00;;;52.30;;
31537;SDS011;18147;51.952;6.146;2023-11-21T07:25:56;138.20;;;54.92;;
31537;SDS011;18147;51.952;6.146;2023-11-21T07:28:23;135.30;;;52.33;;
31537;SDS011;18147;51.952;6.146;2023-11-21T07:30:49;134.23;;;52.83;;
31537;SDS011;18147;51.952;6.146;2023-11-21T07:33:14;152.02;;;55.47;;
31537;SDS011;18147;51.952;6.146;2023-11-21T07:35:40;114.97;;;49.42;;
31537;SDS011;18147;51.952;6.146;2023-11-21T07:38:05;121.18;;;50.20;;
31537;SDS011;18147;51.952;6.146;2023-11-21T07:40:31;130.02;;;53.45;;
31537;SDS011;18147;51.952;6.146;2023-11-21T07:42:56;132.30;;;50.10;;
31537;SDS011;18147;51.952;6.146;2023-11-21T07:45:22;153.82;;;55.53;;
31537;SDS011;18147;51.952;6.146;2023-11-21T07:47:48;126.03;;;50.92;;
31537;SDS011;18147;51.952;6.146;2023-11-21T07:50:13;113.05;;;51.03;;
31537;SDS011;18147;51.952;6.146;2023-11-21T07:52:39;144.93;;;56.60;;
31537;SDS011;18147;51.952;6.146;2023-11-21T07:55:05;138.73;;;58.67;;
31537;SDS011;18147;51.952;6.146;2023-11-21T07:57:30;124.95;;;55.47;;
31537;SDS011;18147;51.952;6.146;2023-11-21T07:59:56;140.98;;;58.78;;
31537;SDS011;18147;51.952;6.146;2023-11-21T08:02:21;127.80;;;56.58;;
31537;SDS011;18147;51.952;6.146;2023-11-21T08:04:47;149.63;;;56.65;;
31537;SDS011;18147;51.952;6.146;2023-11-21T08:07:15;147.95;;;57.40;;
31537;SDS011;18147;51.952;6.146;2023-11-21T08:09:41;144.45;;;54.55;;
31537;SDS011;18147;51.952;6.146;2023-11-21T08:12:07;135.15;;;55.40;;
31537;SDS011;18147;51.952;6.146;2023-11-21T08:14:32;118.35;;;50.80;;
31537;SDS011;18147;51.952;6.146;2023-11-21T08:16:58;107.53;;;47.63;;
31537;SDS011;18147;51.952;6.146;2023-11-21T08:19:24;121.80;;;53.50;;
31537;SDS011;18147;51.952;6.146;2023-11-21T08:21:52;117.90;;;50.95;;
31537;SDS011;18147;51.952;6.146;2023-11-21T08:24:19;152.02;;;55.35;;
31537;SDS011;18147;51.952;6.146;2023-11-21T08:26:45;125.10;;;51.92;;
31537;SDS011;18147;51.952;6.146;2023-11-21T08:29:11;124.18;;;51.80;;
31537;SDS011;18147;51.952;6.146;2023-11-21T08:31:36;131.32;;;54.55;;
31537;SDS011;18147;51.952;6.146;2023-11-21T08:34:03;139.27;;;53.95;;
31537;SDS011;18147;51.952;6.146;2023-11-21T08:36:29;111.95;;;50.08;;
31537;SDS011;18147;51.952;6.146;2023-11-21T08:38:56;130.15;;;52.10;;
31537;SDS011;18147;51.952;6.146;2023-11-21T08:41:22;95.53;;;48.30;;
31537;SDS011;18147;51.952;6.146;2023-11-21T08:43:47;123.00;;;52.40;;
31537;SDS011;18147;51.952;6.146;2023-11-21T08:46:14;127.97;;;51.88;;
31537;SDS011;18147;51.952;6.146;2023-11-21T08:48:42;117.75;;;51.03;;
31537;SDS011;18147;51.952;6.146;2023-11-21T08:51:09;122.50;;;51.97;;
31537;SDS011;18147;51.952;6.146;2023-11-21T08:53:36;108.05;;;49.45;;
31537;SDS011;18147;51.952;6.146;2023-11-21T08:56:03;126.43;;;53.30;;
31537;SDS011;18147;51.952;6.146;2023-11-21T08:58:29;125.47;;;50.58;;
31537;SDS011;18147;51.952;6.146;2023-11-21T09:00:57;120.50;;;51.17;;
31537;SDS011;18147;51.952;6.146;2023-11-21T09:03:22;124.57;;;53.15;;
31537;SDS011;18147;51.952;6.146;2023-11-21T09:05:48;127.85;;;52.38;;
31537;SDS011;18147;51.952;6.146;2023-11-21T09:08:13;162.57;;;58.28;;
31537;SDS011;18147;51.952;6.146;2023-11-21T09:10:39;141.63;;;57.08;;
31537;SDS011;18147;51.952;6.146;2023-11-21T09:13:04;106.45;;;46.58;;
31537;SDS011;18147;51.952;6.146;2023-11-21T09:15:30;139.43;;;53.72;;
31537;SDS011;18147;51.952;6.146;2023-11-21T09:17:55;127.45;;;53.72;;
31537;SDS011;18147;51.952;6.146;2023-11-21T09:20:21;144.57;;;57.03;;
31537;SDS011;18147;51.952;6.146;2023-11-21T09:22:48;143.98;;;55.03;;
31537;SDS011;18147;51.952;6.146;2023-11-21T09:25:14;114.18;;;50.78;;
31537;SDS011;18147;51.952;6.146;2023-11-21T09:27:40;127.22;;;52.33;;
31537;SDS011;18147;51.952;6.146;2023-11-21T09:30:06;121.15;;;52.38;;
31537;SDS011;18147;51.952;6.146;2023-11-21T09:32:35;137.98;;;53.22;;
31537;SDS011;18147;51.952;6.146;2023-11-21T09:35:02;120.95;;;50.08;;
31537;SDS011;18147;51.952;6.146;2023-11-21T09:37:28;141.15;;;54.70;;
31537;SDS011;18147;51.952;6.146;2023-11-21T09:39:54;118.72;;;50.25;;
31537;SDS011;18147;51.952;6.146;2023-11-21T09:42:23;122.15;;;50.92;;
31537;SDS011;18147;51.952;6.146;2023-11-21T09:47:53;137.65;;;54.00;;
31537;SDS011;18147;51.952;6.146;2023-11-21T09:50:22;119.75;;;48.58;;
31537;SDS011;18147;51.952;6.146;2023-11-21T09:52:53;125.05;;;51.05;;
31537;SDS011;18147;51.952;6.146;2023-11-21T09:55:22;134.30;;;55.38;;
31537;SDS011;18147;51.952;6.146;2023-11-21T09:57:52;139.65;;;54.17;;
31537;SDS011;18147;51.952;6.146;2023-11-21T10:00:19;148.80;;;55.00;;
31537;SDS011;18147;51.952;6.146;2023-11-21T10:02:48;149.02;;;56.90;;
31537;SDS011;18147;51.952;6.146;2023-11-21T10:05:15;112.80;;;49.63;;
31537;SDS011;18147;51.952;6.146;2023-11-21T10:07:43;143.93;;;53.63;;
31537;SDS011;18147;51.952;6.146;2023-11-21T10:10:10;147.80;;;54.80;;
31537;SDS011;18147;51.952;6.146;2023-11-21T10:12:35;111.65;;;49.72;;
31537;SDS011;18147;51.952;6.146;2023-11-21T10:15:02;149.18;;;54.38;;
31537;SDS011;18147;51.952;6.146;2023-11-21T10:17:31;138.77;;;53.67;;
31537;SDS011;18147;51.952;6.146;2023-11-21T10:20:04;139.68;;;55.03;;
31537;SDS011;18147;51.952;6.146;2023-11-21T10:22:36;149.65;;;56.78;;
31537;SDS011;18147;51.952;6.146;2023-11-21T10:25:03;132.13;;;52.25;;
31537;SDS011;18147;51.952;6.146;2023-11-21T10:27:33;131.45;;;52.45;;
31537;SDS011;18147;51.952;6.146;2023-11-21T10:30:00;104.63;;;45.45;;
31537;SDS011;18147;51.952;6.146;2023-11-21T10:32:29;120.95;;;46.92;;
31537;SDS011;18147;51.952;6.146;2023-11-21T10:34:58;112.05;;;46.28;;
31537;SDS011;18147;51.952;6.146;2023-11-21T10:37:32;100.43;;;43.20;;
31537;SDS011;18147;51.952;6.146;2023-11-21T10:40:00;112.30;;;47.13;;
31537;SDS011;18147;51.952;6.146;2023-11-21T10:42:26;119.15;;;50.40;;
31537;SDS011;18147;51.952;6.146;2023-11-21T10:44:54;94.63;;;42.10;;
31537;SDS011;18147;51.952;6.146;2023-11-21T10:47:21;95.05;;;42.13;;
31537;SDS011;18147;51.952;6.146;2023-11-21T10:49:51;99.40;;;43.55;;
31537;SDS011;18147;51.952;6.146;2023-11-21T10:52:18;86.20;;;38.75;;
31537;SDS011;18147;51.952;6.146;2023-11-21T10:54:45;95.20;;;41.30;;
31537;SDS011;18147;51.952;6.146;2023-11-21T10:57:11;82.68;;;36.67;;
31537;SDS011;18147;51.952;6.146;2023-11-21T10:59:42;79.25;;;37.45;;
31537;SDS011;18147;51.952;6.146;2023-11-21T11:02:24;78.80;;;34.15;;
31537;SDS011;18147;51.952;6.146;2023-11-21T11:04:53;78.25;;;33.35;;
31537;SDS011;18147;51.952;6.146;2023-11-21T11:07:21;74.22;;;35.28;;
31537;SDS011;18147;51.952;6.146;2023-11-21T11:09:50;77.38;;;34.13;;
31537;SDS011;18147;51.952;6.146;2023-11-21T11:12:15;80.80;;;34.72;;
31537;SDS011;18147;51.952;6.146;2023-11-21T11:14:42;76.63;;;34.15;;
31537;SDS011;18147;51.952;6.146;2023-11-21T11:17:10;89.70;;;35.10;;
31537;SDS011;18147;51.952;6.146;2023-11-21T11:19:35;82.75;;;35.08;;
31537;SDS011;18147;51.952;6.146;2023-11-21T11:22:16;80.20;;;34.03;;
31537;SDS011;18147;51.952;6.146;2023-11-21T11:33:19;63.40;;;27.83;;
31537;SDS011;18147;51.952;6.146;2023-11-21T11:36:02;63.88;;;27.33;;
31537;SDS011;18147;51.952;6.146;2023-11-21T11:38:47;54.55;;;24.77;;
31537;SDS011;18147;51.952;6.146;2023-11-21T11:41:19;68.53;;;27.98;;
31537;SDS011;18147;51.952;6.146;2023-11-21T11:43:55;70.88;;;30.35;;
31537;SDS011;18147;51.952;6.146;2023-11-21T11:46:22;73.47;;;30.67;;
31537;SDS011;18147;51.952;6.146;2023-11-21T11:49:10;78.07;;;31.65;;
31537;SDS011;18147;51.952;6.146;2023-11-21T11:51:36;64.97;;;28.23;;
31537;SDS011;18147;51.952;6.146;2023-11-21T11:54:02;64.25;;;28.75;;
31537;SDS011;18147;51.952;6.146;2023-11-21T11:56:29;61.25;;;27.20;;
31537;SDS011;18147;51.952;6.146;2023-11-21T11:59:03;72.97;;;29.67;;
31537;SDS011;18147;51.952;6.146;2023-11-21T12:01:31;70.10;;;30.08;;
31537;SDS011;18147;51.952;6.146;2023-11-21T12:06:36;57.33;;;28.80;;
31537;SDS011;18147;51.952;6.146;2023-11-21T12:09:02;50.90;;;26.88;;
31537;SDS011;18147;51.952;6.146;2023-11-21T12:11:31;60.90;;;26.38;;
31537;SDS011;18147;51.952;6.146;2023-11-21T12:13:57;59.13;;;25.55;;
31537;SDS011;18147;51.952;6.146;2023-11-21T12:16:25;48.60;;;24.63;;
31537;SDS011;18147;51.952;6.146;2023-11-21T12:18:52;57.45;;;27.48;;
31537;SDS011;18147;51.952;6.146;2023-11-21T12:21:19;56.00;;;26.10;;
31537;SDS011;18147;51.952;6.146;2023-11-21T12:23:45;50.22;;;24.58;;
31537;SDS011;18147;51.952;6.146;2023-11-21T12:26:12;59.45;;;27.85;;
31537;SDS011;18147;51.952;6.146;2023-11-21T12:28:38;64.50;;;29.40;;
31537;SDS011;18147;51.952;6.146;2023-11-21T12:31:04;68.43;;;29.25;;
31537;SDS011;18147;51.952;6.146;2023-11-21T12:33:32;65.63;;;31.05;;
31537;SDS011;18147;51.952;6.146;2023-11-21T12:35:58;67.03;;;31.38;;
31537;SDS011;18147;51.952;6.146;2023-11-21T12:38:23;68.50;;;31.27;;
31537;SDS011;18147;51.952;6.146;2023-11-21T12:40:50;65.25;;;31.45;;
31537;SDS011;18147;51.952;6.146;2023-11-21T12:43:16;65.15;;;30.92;;
31537;SDS011;18147;51.952;6.146;2023-11-21T12:45:43;66.63;;;31.48;;
31537;SDS011;18147;51.952;6.146;2023-11-21T12:48:09;64.18;;;30.63;;
31537;SDS011;18147;51.952;6.146;2023-11-21T12:50:36;62.45;;;29.50;;
31537;SDS011;18147;51.952;6.146;2023-11-21T12:53:04;66.57;;;32.58;;
31537;SDS011;18147;51.952;6.146;2023-11-21T12:55:34;62.50;;;31.58;;
31537;SDS011;18147;51.952;6.146;2023-11-21T13:00:37;62.75;;;30.00;;
31537;SDS011;18147;51.952;6.146;2023-11-21T13:03:04;65.57;;;32.30;;
31537;SDS011;18147;51.952;6.146;2023-11-21T13:05:33;65.82;;;29.88;;
31537;SDS011;18147;51.952;6.146;2023-11-21T13:08:03;69.95;;;31.35;;
31537;SDS011;18147;51.952;6.146;2023-11-21T13:10:32;68.93;;;29.70;;
31537;SDS011;18147;51.952;6.146;2023-11-21T13:13:01;61.55;;;29.55;;
31537;SDS011;18147;51.952;6.146;2023-11-21T13:15:30;55.45;;;27.52;;
31537;SDS011;18147;51.952;6.146;2023-11-21T13:18:00;54.30;;;25.30;;
31537;SDS011;18147;51.952;6.146;2023-11-21T13:20:26;49.60;;;25.80;;
31537;SDS011;18147;51.952;6.146;2023-11-21T13:25:28;55.97;;;26.95;;
31537;SDS011;18147;51.952;6.146;2023-11-21T13:27:56;58.42;;;27.67;;
31537;SDS011;18147;51.952;6.146;2023-11-21T13:30:25;57.53;;;28.75;;
31537;SDS011;18147;51.952;6.146;2023-11-21T13:32:52;57.03;;;27.33;;
31537;SDS011;18147;51.952;6.146;2023-11-21T13:35:30;62.17;;;26.65;;
31537;SDS011;18147;51.952;6.146;2023-11-21T13:38:05;58.10;;;28.15;;
31537;SDS011;18147;51.952;6.146;2023-11-21T13:40:33;61.17;;;26.60;;
31537;SDS011;18147;51.952;6.146;2023-11-21T13:43:09;56.67;;;26.17;;
31537;SDS011;18147;51.952;6.146;2023-11-21T13:45:36;61.78;;;28.17;;
31537;SDS011;18147;51.952;6.146;2023-11-21T13:48:05;56.75;;;27.73;;
31537;SDS011;18147;51.952;6.146;2023-11-21T13:50:38;64.88;;;27.15;;
31537;SDS011;18147;51.952;6.146;2023-11-21T13:53:04;53.95;;;21.73;;
31537;SDS011;18147;51.952;6.146;2023-11-21T13:55:44;47.40;;;18.60;;
31537;SDS011;18147;51.952;6.146;2023-11-21T13:58:10;50.47;;;19.10;;
31537;SDS011;18147;51.952;6.146;2023-11-21T14:00:42;47.10;;;19.58;;
31537;SDS011;18147;51.952;6.146;2023-11-21T14:03:14;49.75;;;19.98;;
31537;SDS011;18147;51.952;6.146;2023-11-21T14:05:46;54.78;;;19.40;;
31537;SDS011;18147;51.952;6.146;2023-11-21T14:08:19;53.97;;;21.83;;
31537;SDS011;18147;51.952;6.146;2023-11-21T14:10:48;47.17;;;20.33;;
31537;SDS011;18147;51.952;6.146;2023-11-21T14:13:20;52.88;;;20.25;;
31537;SDS011;18147;51.952;6.146;2023-11-21T14:15:48;54.78;;;21.30;;
31537;SDS011;18147;51.952;6.146;2023-11-21T14:18:16;51.30;;;20.58;;
31537;SDS011;18147;51.952;6.146;2023-11-21T14:20:51;50.13;;;20.23;;
31537;SDS011;18147;51.952;6.146;2023-11-21T14:23:16;49.00;;;20.33;;
31537;SDS011;18147;51.952;6.146;2023-11-21T14:25:43;57.05;;;21.45;;
31537;SDS011;18147;51.952;6.146;2023-11-21T14:28:08;50.90;;;21.13;;
31537;SDS011;18147;51.952;6.146;2023-11-21T14:30:36;56.58;;;22.13;;
31537;SDS011;18147;51.952;6.146;2023-11-21T14:33:04;53.80;;;21.52;;